Time;durP1;ratioP1;P1;durP2;ratioP2;P2;SDS_P1;SDS_P2;PMS_P1;PMS_P2;Temp;Humidity;BMP_temperature;BMP_pressure;BME280_temperature;BME280_humidity;BME280_pressure;Samples;Min_cycle;Max_cycle;Signal;HPM_P1;HPM_P2
2023/12/25 00:01:31;;;;;;;0.27;0.23;;;15.90;66.80;14.90;95939.00;;;;4970950;28;20195;-89
2023/12/25 00:03:58;;;;;;;0.20;0.20;;;15.90;68.20;14.90;95953.00;;;;4974718;28;20204;-89
2023/12/25 00:06:26;;;;;;;0.17;0.17;;;15.90;68.10;14.80;95935.00;;;;4986078;28;20273;-89
2023/12/25 00:08:53;;;;;;;0.10;0.10;;;15.80;68.00;14.80;95952.00;;;;4994579;28;20207;-88
2023/12/25 00:11:20;;;;;;;0.20;0.20;;;15.80;68.00;14.80;95945.00;;;;4986484;28;20679;-89
2023/12/25 00:13:50;;;;;;;0.20;0.20;;;15.80;67.90;14.80;95943.00;;;;4983967;28;20227;-90
2023/12/25 00:16:19;;;;;;;0.40;0.20;;;15.80;67.70;14.80;95943.00;;;;4982949;28;20269;-89
2023/12/25 00:18:46;;;;;;;0.20;0.10;;;15.70;67.50;14.70;95944.00;;;;4988287;28;20249;-89
2023/12/25 00:21:14;;;;;;;0.20;0.20;;;15.70;67.60;14.70;95953.00;;;;4991712;28;20283;-89
2023/12/25 00:23:41;;;;;;;0.50;0.13;;;15.70;67.60;14.70;95960.00;;;;4985236;28;20269;-88
2023/12/25 00:26:09;;;;;;;0.20;0.20;;;15.70;67.50;14.70;95951.00;;;;4976559;28;20246;-88
2023/12/25 00:28:36;;;;;;;0.20;0.20;;;15.60;67.30;14.60;95961.00;;;;4982375;28;20266;-89
2023/12/25 00:31:04;;;;;;;0.20;0.10;;;15.60;67.20;14.60;95948.00;;;;4976241;28;20218;-88
2023/12/25 00:33:33;;;;;;;0.23;0.20;;;15.60;67.20;14.60;95942.00;;;;4975430;28;20629;-89
2023/12/25 00:36:00;;;;;;;0.97;0.20;;;15.60;67.30;14.60;95954.00;;;;4973902;28;20227;-89
2023/12/25 00:38:28;;;;;;;0.20;0.10;;;15.60;67.40;14.60;95960.00;;;;4971256;28;20202;-89
2023/12/25 00:40:55;;;;;;;0.20;0.20;;;15.60;67.10;14.60;95956.00;;;;4974627;28;20211;-88
2023/12/25 00:43:22;;;;;;;0.10;0.10;;;15.50;67.30;14.60;95956.00;;;;4974581;28;20839;-89
2023/12/25 00:45:52;;;;;;;0.20;0.20;;;15.50;67.30;14.60;95961.00;;;;4973763;28;20223;-88
2023/12/25 00:48:19;;;;;;;1.43;0.10;;;15.50;66.90;14.50;95961.00;;;;4982089;28;20231;-88
2023/12/25 00:50:48;;;;;;;0.20;0.20;;;15.50;67.20;14.50;95957.00;;;;4989784;28;20233;-89
2023/12/25 00:53:15;;;;;;;0.10;0.10;;;15.50;67.00;14.50;95978.00;;;;4978805;28;20204;-88
2023/12/25 00:55:42;;;;;;;0.13;0.13;;;15.50;67.30;14.50;95973.00;;;;4974073;28;20304;-88
2023/12/25 00:58:09;;;;;;;0.20;0.20;;;15.50;67.30;14.50;95974.00;;;;4983338;28;20261;-87
2023/12/25 01:00:36;;;;;;;0.23;0.20;;;15.50;67.20;14.50;95972.00;;;;4980108;28;20231;-88
2023/12/25 01:03:04;;;;;;;0.27;0.27;;;15.50;67.50;14.50;95972.00;;;;4981541;28;20222;-89
2023/12/25 01:05:31;;;;;;;0.30;0.27;;;15.50;67.40;14.50;95977.00;;;;4986053;28;20613;-88
2023/12/25 01:08:00;;;;;;;0.17;0.10;;;15.50;67.30;14.60;96002.00;;;;4984341;28;20935;-89
2023/12/25 01:10:27;;;;;;;0.47;0.20;;;15.50;67.00;14.60;95966.00;;;;4963692;28;20191;-88
2023/12/25 01:12:54;;;;;;;0.80;0.20;;;15.50;67.20;14.60;95965.00;;;;4975702;28;20206;-88
2023/12/25 01:15:22;;;;;;;0.20;0.20;;;15.50;67.10;14.60;95983.00;;;;4982625;28;20231;-88
2023/12/25 01:17:49;;;;;;;0.10;0.10;;;15.50;66.80;14.60;95974.00;;;;4982139;28;20206;-88
2023/12/25 01:20:16;;;;;;;0.10;0.10;;;15.50;66.80;14.60;95991.00;;;;4982765;28;20235;-88
2023/12/25 01:22:43;;;;;;;0.20;0.20;;;15.50;67.00;14.60;95991.00;;;;4975084;28;20230;-89
2023/12/25 01:25:12;;;;;;;0.20;0.20;;;15.60;67.00;14.60;95994.00;;;;4980427;28;20637;-89
2023/12/25 01:27:41;;;;;;;0.10;0.10;;;15.60;66.70;14.70;95998.00;;;;4982398;28;20202;-88
2023/12/25 01:30:11;;;;;;;0.90;0.13;;;15.60;66.70;14.70;96016.00;;;;4982592;28;20258;-88
2023/12/25 01:32:40;;;;;;;0.20;0.20;;;15.60;66.70;14.70;96018.00;;;;4972992;28;20215;-88
2023/12/25 01:35:08;;;;;;;1.13;0.43;;;15.60;66.50;14.70;96021.00;;;;4981292;28;20258;-88
2023/12/25 01:37:35;;;;;;;0.20;0.20;;;15.60;66.70;14.70;96015.00;;;;4973306;28;20282;-88
2023/12/25 01:40:03;;;;;;;0.30;0.20;;;15.60;66.60;14.70;96023.00;;;;4977212;28;20612;-88
2023/12/25 01:42:43;;;;;;;0.10;0.10;;;15.60;66.60;14.70;96020.00;;;;4985477;28;20203;-88
2023/12/25 01:45:25;;;;;;;0.10;0.10;;;15.60;65.70;14.70;96021.00;;;;4978691;28;20246;-89
2023/12/25 01:47:53;;;;;;;0.10;0.10;;;15.60;65.50;14.70;96027.00;;;;4971694;28;20566;-88
2023/12/25 01:50:20;;;;;;;0.13;0.13;;;15.60;66.80;14.70;96020.00;;;;4970756;28;20195;-88
2023/12/25 01:52:50;;;;;;;0.27;0.20;;;15.60;66.90;14.70;96032.00;;;;4976245;28;20204;-88
2023/12/25 01:55:18;;;;;;;0.23;0.20;;;15.60;66.30;14.70;96024.00;;;;4966073;28;20232;-89
2023/12/25 01:57:47;;;;;;;0.43;0.20;;;15.60;66.60;14.70;96020.00;;;;4974390;28;20200;-87
2023/12/25 02:00:15;;;;;;;0.47;0.30;;;15.70;66.50;14.70;96019.00;;;;4975445;28;20258;-88
2023/12/25 02:02:43;;;;;;;0.20;0.20;;;15.70;66.60;14.80;96010.00;;;;4979762;28;20289;-88
2023/12/25 02:05:11;;;;;;;0.33;0.20;;;15.70;66.50;14.80;96034.00;;;;4972432;28;20234;-87
2023/12/25 02:07:40;;;;;;;0.53;0.20;;;15.70;66.40;14.80;96024.00;;;;4979568;28;20231;-88
2023/12/25 02:10:09;;;;;;;1.07;0.20;;;15.70;66.40;14.80;96033.00;;;;4972982;28;20685;-89
2023/12/25 02:12:36;;;;;;;0.10;0.10;;;15.70;66.10;14.80;96022.00;;;;4971859;28;20294;-89
2023/12/25 02:15:06;;;;;;;0.20;0.20;;;15.70;66.50;14.80;96031.00;;;;4973032;28;20302;-88
2023/12/25 02:17:35;;;;;;;0.20;0.20;;;15.80;66.00;14.80;96024.00;;;;4972636;28;20218;-88
2023/12/25 02:20:03;;;;;;;0.20;0.10;;;15.80;66.40;14.90;96013.00;;;;4971707;28;20199;-87
2023/12/25 02:22:30;;;;;;;0.20;0.10;;;15.80;66.10;14.90;96015.00;;;;4973369;28;20670;-88
2023/12/25 02:25:03;;;;;;;0.27;0.20;;;15.80;66.00;14.90;96020.00;;;;4972902;28;20659;-87
2023/12/25 02:27:32;;;;;;;0.47;0.20;;;15.80;65.70;14.90;96010.00;;;;4974282;28;20198;-88
2023/12/25 02:29:59;;;;;;;0.20;0.20;;;15.80;65.80;14.90;96013.00;;;;4976728;28;20262;-87
2023/12/25 02:32:29;;;;;;;0.73;0.20;;;15.80;65.90;14.90;96021.00;;;;4973068;28;20289;-87
2023/12/25 02:34:56;;;;;;;0.20;0.20;;;15.80;65.30;14.90;96032.00;;;;4979174;28;20828;-88
2023/12/25 02:37:23;;;;;;;0.10;0.10;;;15.90;65.80;14.90;96029.00;;;;4971249;28;20203;-88
2023/12/25 02:39:50;;;;;;;0.20;0.20;;;15.80;65.50;14.90;96016.00;;;;4972638;28;20270;-88
2023/12/25 02:42:18;;;;;;;0.10;0.10;;;15.90;65.50;14.90;96023.00;;;;4981289;28;20261;-88
2023/12/25 02:44:46;;;;;;;0.57;0.33;;;15.80;65.40;14.90;96028.00;;;;4982657;28;20541;-89
2023/12/25 02:47:13;;;;;;;0.10;0.10;;;15.80;65.30;14.90;96031.00;;;;4983181;28;20610;-88
2023/12/25 02:49:41;;;;;;;0.20;0.20;;;15.80;65.50;14.90;96018.00;;;;4975059;28;20278;-88
2023/12/25 02:52:08;;;;;;;0.67;0.30;;;15.80;65.40;14.90;96006.00;;;;4972568;28;20341;-88
2023/12/25 02:54:35;;;;;;;0.20;0.20;;;15.80;65.30;14.90;96004.00;;;;4981393;28;20195;-88
2023/12/25 02:57:02;;;;;;;0.10;0.10;;;15.80;66.00;14.90;96017.00;;;;4972844;28;20294;-88
2023/12/25 02:59:29;;;;;;;0.83;0.30;;;15.80;65.00;14.90;96001.00;;;;4984547;28;20277;-88
2023/12/25 03:01:58;;;;;;;0.10;0.10;;;15.80;65.10;14.90;95998.00;;;;4981862;28;20780;-88
2023/12/25 03:04:25;;;;;;;0.10;0.10;;;15.80;65.00;14.90;96005.00;;;;4978857;28;20290;-88
2023/12/25 03:06:52;;;;;;;0.20;0.20;;;15.80;65.20;14.80;96004.00;;;;4986709;28;20309;-88
2023/12/25 03:09:20;;;;;;;0.10;0.10;;;15.80;65.00;14.80;95996.00;;;;4972284;28;20262;-88
2023/12/25 03:11:47;;;;;;;0.10;0.10;;;15.80;64.90;14.80;95989.00;;;;4972756;28;20234;-88
2023/12/25 03:14:15;;;;;;;0.20;0.20;;;15.70;64.50;14.80;96001.00;;;;4974407;28;20238;-88
2023/12/25 03:16:42;;;;;;;0.17;0.17;;;15.70;64.80;14.70;96012.00;;;;4983720;28;20317;-88
2023/12/25 03:19:10;;;;;;;0.20;0.20;;;15.70;64.80;14.70;95994.00;;;;4973674;28;20320;-88
2023/12/25 03:21:37;;;;;;;0.20;0.10;;;15.70;64.40;14.70;96011.00;;;;4977129;28;20282;-88
2023/12/25 03:24:05;;;;;;;0.10;0.10;;;15.70;64.50;14.70;96021.00;;;;4981449;28;20254;-89
2023/12/25 03:26:33;;;;;;;0.10;0.10;;;15.70;64.80;14.70;96018.00;;;;4984410;28;20249;-88
2023/12/25 03:29:01;;;;;;;0.20;0.20;;;15.70;64.90;14.70;96011.00;;;;4982363;28;20217;-88
2023/12/25 03:31:30;;;;;;;0.23;0.13;;;15.70;64.80;14.70;96016.00;;;;4964587;28;20253;-88
2023/12/25 03:33:58;;;;;;;1.20;0.20;;;15.70;64.90;14.70;96013.00;;;;4974013;28;20207;-88
2023/12/25 03:36:27;;;;;;;0.20;0.20;;;15.70;64.70;14.70;96035.00;;;;4990436;28;20229;-88
2023/12/25 03:38:54;;;;;;;0.60;0.10;;;15.70;64.50;14.80;96016.00;;;;4978561;28;20204;-88
2023/12/25 03:41:21;;;;;;;0.37;0.20;;;15.70;64.60;14.80;96015.00;;;;4974108;28;20211;-89
2023/12/25 03:43:48;;;;;;;0.30;0.17;;;15.70;64.50;14.80;96006.00;;;;4975510;28;20199;-89
2023/12/25 03:46:15;;;;;;;0.30;0.20;;;15.70;64.30;14.80;96015.00;;;;4974679;28;20251;-88
2023/12/25 03:48:43;;;;;;;0.30;0.10;;;15.70;64.00;14.80;96014.00;;;;4987989;28;20234;-88
2023/12/25 03:51:10;;;;;;;0.63;0.20;;;15.70;63.90;14.80;96002.00;;;;4994104;28;20233;-88
2023/12/25 03:53:39;;;;;;;0.53;0.20;;;15.70;64.00;14.80;96004.00;;;;4980523;28;20283;-88
2023/12/25 03:56:07;;;;;;;0.13;0.10;;;15.80;63.90;14.90;96001.00;;;;4991544;28;20233;-87
2023/12/25 03:58:35;;;;;;;0.20;0.17;;;15.80;63.90;14.80;95999.00;;;;4986474;28;20281;-88
2023/12/25 04:01:02;;;;;;;0.30;0.20;;;15.80;63.80;14.80;95992.00;;;;4978652;28;20231;-87
2023/12/25 04:03:29;;;;;;;0.30;0.30;;;15.80;63.60;14.80;95997.00;;;;4975141;28;20227;-88
2023/12/25 04:05:56;;;;;;;0.10;0.10;;;15.80;63.50;14.90;95985.00;;;;4974777;28;20310;-88
2023/12/25 04:08:23;;;;;;;0.10;0.10;;;15.80;63.20;14.90;95996.00;;;;4978510;28;20286;-88
2023/12/25 04:10:52;;;;;;;0.70;0.20;;;15.80;63.20;14.90;95996.00;;;;4976198;28;20212;-89
2023/12/25 04:13:19;;;;;;;0.20;0.20;;;15.80;62.80;14.90;95995.00;;;;4982030;28;20208;-88
2023/12/25 04:15:47;;;;;;;0.20;0.20;;;15.80;62.80;14.90;95986.00;;;;4975030;28;20306;-88
2023/12/25 04:18:14;;;;;;;0.33;0.30;;;15.80;62.80;14.90;95991.00;;;;4982422;28;20262;-87
2023/12/25 04:20:41;;;;;;;1.40;0.20;;;15.80;62.80;14.90;95990.00;;;;4982015;28;20911;-89
2023/12/25 04:23:08;;;;;;;0.17;0.17;;;15.80;62.50;14.90;95989.00;;;;4974391;28;20230;-88
2023/12/25 04:25:35;;;;;;;0.23;0.23;;;15.80;62.30;14.90;95992.00;;;;4976597;28;20246;-89
2023/12/25 04:28:05;;;;;;;0.10;0.10;;;15.80;62.40;14.90;95997.00;;;;4989503;28;20278;-88
2023/12/25 04:30:32;;;;;;;0.20;0.20;;;15.80;62.40;14.90;96001.00;;;;4971764;28;20228;-88
2023/12/25 04:32:59;;;;;;;0.10;0.10;;;15.80;62.30;14.90;96002.00;;;;4984559;28;20271;-88
2023/12/25 04:35:26;;;;;;;0.30;0.20;;;15.80;62.40;14.90;96004.00;;;;4970385;28;20283;-87
2023/12/25 04:37:54;;;;;;;0.60;0.17;;;15.80;62.10;14.90;96005.00;;;;4970554;28;20203;-88
2023/12/25 04:40:21;;;;;;;0.20;0.20;;;15.80;62.30;14.90;96008.00;;;;4974607;28;20724;-88
2023/12/25 04:42:49;;;;;;;0.90;0.20;;;15.80;62.20;14.90;96001.00;;;;4982040;28;20222;-88
2023/12/25 04:45:18;;;;;;;0.30;0.30;;;15.80;62.20;14.90;96002.00;;;;4972368;28;20762;-88
2023/12/25 04:47:45;;;;;;;0.10;0.10;;;15.80;62.00;14.90;96002.00;;;;4985670;28;20642;-88
2023/12/25 04:50:12;;;;;;;0.20;0.20;;;15.80;62.10;14.90;96002.00;;;;4974046;28;20226;-88
2023/12/25 04:52:39;;;;;;;0.37;0.37;;;15.80;62.00;14.90;95991.00;;;;4974411;28;20227;-88
2023/12/25 04:55:07;;;;;;;0.10;0.10;;;15.80;62.00;14.80;96004.00;;;;4974175;28;20254;-87
2023/12/25 04:57:34;;;;;;;0.60;0.20;;;15.80;61.80;14.80;96004.00;;;;4979967;28;20290;-88
2023/12/25 05:00:03;;;;;;;0.93;0.20;;;15.80;61.60;14.80;96010.00;;;;4979162;28;20282;-88
2023/12/25 05:02:32;;;;;;;0.40;0.20;;;15.80;61.80;14.80;96003.00;;;;4985474;28;20368;-88
2023/12/25 05:05:00;;;;;;;0.83;0.17;;;15.80;61.00;14.80;95990.00;;;;4985671;28;20235;-88
2023/12/25 05:07:27;;;;;;;1.27;0.40;;;15.70;61.20;14.70;96010.00;;;;4970872;28;20225;-88
2023/12/25 05:09:54;;;;;;;0.27;0.20;;;15.70;61.40;14.80;96004.00;;;;4994751;28;20232;-89
2023/12/25 05:12:21;;;;;;;0.30;0.23;;;15.70;61.40;14.80;96012.00;;;;4993072;28;20234;-88
2023/12/25 05:14:48;;;;;;;0.30;0.30;;;15.70;61.00;14.80;96017.00;;;;4981150;28;20729;-88
2023/12/25 05:17:17;;;;;;;0.37;0.20;;;15.70;61.30;14.80;96012.00;;;;4978974;28;20223;-89
2023/12/25 05:19:45;;;;;;;0.20;0.20;;;15.70;61.70;14.80;96019.00;;;;4985559;28;20207;-88
2023/12/25 05:22:12;;;;;;;0.30;0.30;;;15.70;61.40;14.70;96011.00;;;;4981229;28;20623;-88
2023/12/25 05:24:39;;;;;;;0.20;0.20;;;15.70;61.60;14.80;96015.00;;;;4981450;28;20195;-88
2023/12/25 05:27:07;;;;;;;0.20;0.20;;;15.70;61.60;14.70;96014.00;;;;4973347;28;20199;-89
2023/12/25 05:29:34;;;;;;;0.20;0.20;;;15.70;61.60;14.70;96025.00;;;;4984573;28;20230;-90
2023/12/25 05:32:01;;;;;;;0.20;0.20;;;15.70;61.50;14.70;96002.00;;;;4983437;28;20540;-88
2023/12/25 05:34:29;;;;;;;0.20;0.20;;;15.70;61.70;14.70;96013.00;;;;4973954;28;20246;-89
2023/12/25 05:36:57;;;;;;;0.77;0.10;;;15.70;61.50;14.70;96023.00;;;;4982257;28;20222;-89
2023/12/25 05:39:25;;;;;;;0.20;0.20;;;15.70;61.40;14.70;96009.00;;;;4974487;28;20214;-89
2023/12/25 05:41:53;;;;;;;0.27;0.27;;;15.70;61.30;14.70;96022.00;;;;4977156;28;20203;-89
2023/12/25 05:44:20;;;;;;;0.13;0.13;;;15.70;61.60;14.70;96006.00;;;;4986386;28;20250;-90
2023/12/25 05:46:48;;;;;;;0.20;0.20;;;15.60;61.40;14.70;96018.00;;;;4985253;28;20227;-90
2023/12/25 05:49:15;;;;;;;0.30;0.30;;;15.60;61.30;14.60;96030.00;;;;4976507;28;20218;-90
2023/12/25 05:51:42;;;;;;;0.20;0.20;;;15.60;61.20;14.70;96015.00;;;;4973765;28;20199;-89
2023/12/25 05:54:11;;;;;;;0.30;0.27;;;15.60;61.30;14.70;96024.00;;;;4982086;28;20227;-88
2023/12/25 05:56:38;;;;;;;0.10;0.10;;;15.60;61.80;14.70;96029.00;;;;4982155;28;20227;-90
2023/12/25 05:59:05;;;;;;;0.83;0.20;;;15.60;60.90;14.70;96033.00;;;;4981871;28;20286;-89
2023/12/25 06:01:32;;;;;;;0.77;0.30;;;15.60;61.10;14.70;96034.00;;;;4985678;28;20697;-90
2023/12/25 06:04:01;;;;;;;0.30;0.30;;;15.60;61.10;14.70;96032.00;;;;4978270;28;20207;-90
2023/12/25 06:06:28;;;;;;;0.27;0.20;;;15.60;61.20;14.70;96035.00;;;;4968249;28;20231;-89
2023/12/25 06:08:56;;;;;;;0.23;0.20;;;15.60;60.90;14.70;96026.00;;;;4982325;28;20287;-88
2023/12/25 06:11:25;;;;;;;0.60;0.20;;;15.70;60.90;14.70;96029.00;;;;4982313;28;20233;-89
2023/12/25 06:13:52;;;;;;;0.20;0.20;;;15.70;60.70;14.70;96007.00;;;;4965892;28;20200;-89
2023/12/25 06:16:19;;;;;;;0.97;0.20;;;15.70;60.80;14.80;96030.00;;;;4981329;28;20227;-89
2023/12/25 06:18:46;;;;;;;0.60;0.20;;;15.70;60.60;14.80;96033.00;;;;4973406;28;20195;-89
2023/12/25 06:21:15;;;;;;;0.20;0.20;;;15.70;60.50;14.80;96040.00;;;;4981018;28;20199;-89
2023/12/25 06:23:44;;;;;;;0.30;0.27;;;15.70;60.20;14.80;96046.00;;;;4973606;28;20196;-88
2023/12/25 06:26:11;;;;;;;0.20;0.20;;;15.70;60.00;14.70;96035.00;;;;4987297;28;20230;-89
2023/12/25 06:28:40;;;;;;;0.30;0.13;;;15.70;60.20;14.70;96035.00;;;;4986813;28;20203;-89
2023/12/25 06:31:08;;;;;;;0.20;0.20;;;15.70;59.90;14.80;96049.00;;;;4974117;28;20571;-89
2023/12/25 06:33:35;;;;;;;0.37;0.20;;;15.70;59.90;14.80;96062.00;;;;4982164;28;20242;-89
2023/12/25 06:36:03;;;;;;;0.30;0.27;;;15.70;59.90;14.80;96063.00;;;;4989743;28;20670;-89
2023/12/25 06:38:34;;;;;;;0.30;0.30;;;15.70;60.00;14.80;96053.00;;;;4988507;28;20217;-89
2023/12/25 06:41:03;;;;;;;0.50;0.20;;;15.70;59.90;14.80;96053.00;;;;4980069;28;20202;-89
2023/12/25 06:43:43;;;;;;;0.53;0.50;;;15.70;59.80;14.80;96062.00;;;;4974117;28;20726;-90
2023/12/25 06:46:12;;;;;;;0.67;0.30;;;15.70;59.50;14.80;96058.00;;;;4988882;28;20305;-89
2023/12/25 06:48:39;;;;;;;0.20;0.20;;;15.80;59.90;14.80;96061.00;;;;4972392;28;20206;-90
2023/12/25 06:51:09;;;;;;;0.10;0.10;;;15.70;59.80;14.80;96057.00;;;;4971493;28;20207;-89
2023/12/25 06:53:36;;;;;;;0.20;0.20;;;15.70;59.70;14.80;96061.00;;;;4977002;28;20276;-89
2023/12/25 06:56:05;;;;;;;0.30;0.30;;;15.80;59.60;14.80;96056.00;;;;4984124;28;20243;-89
2023/12/25 06:58:32;;;;;;;0.20;0.20;;;15.80;59.60;14.80;96039.00;;;;4984279;28;20237;-88
2023/12/25 07:01:02;;;;;;;0.23;0.23;;;15.80;59.60;14.80;96034.00;;;;4984253;28;20191;-90
2023/12/25 07:03:31;;;;;;;0.83;0.20;;;15.80;59.40;14.80;96030.00;;;;4973793;28;20199;-90
2023/12/25 07:05:58;;;;;;;0.20;0.20;;;15.80;59.20;14.80;96042.00;;;;4974956;28;20258;-89
2023/12/25 07:08:27;;;;;;;0.47;0.30;;;15.80;59.30;14.80;96044.00;;;;4984220;28;20722;-90
2023/12/25 07:10:55;;;;;;;0.40;0.30;;;15.80;59.30;14.80;96035.00;;;;4977184;28;20685;-90
2023/12/25 07:13:22;;;;;;;0.40;0.30;;;15.80;59.10;14.80;96019.00;;;;4975895;28;20235;-90
2023/12/25 07:15:50;;;;;;;0.17;0.17;;;15.80;59.40;14.80;96039.00;;;;4983681;28;20218;-88
2023/12/25 07:18:17;;;;;;;0.30;0.30;;;15.80;59.20;14.90;96045.00;;;;4979296;28;20223;-89
2023/12/25 07:20:45;;;;;;;0.27;0.20;;;15.80;59.40;14.80;96051.00;;;;4981304;28;20796;-89
2023/12/25 07:23:14;;;;;;;0.40;0.40;;;15.80;59.20;14.90;96052.00;;;;4981466;28;20223;-89
2023/12/25 07:25:41;;;;;;;0.20;0.20;;;15.80;59.20;14.80;96039.00;;;;4985442;28;20704;-88
2023/12/25 07:28:08;;;;;;;0.30;0.30;;;15.80;59.10;14.80;96049.00;;;;4985123;28;20199;-90
2023/12/25 07:30:35;;;;;;;1.37;0.30;;;15.80;59.00;14.80;96038.00;;;;4976376;28;20253;-89
2023/12/25 07:33:03;;;;;;;0.40;0.40;;;15.80;58.80;14.80;96044.00;;;;4975393;28;20286;-88
2023/12/25 07:35:30;;;;;;;1.13;0.30;;;15.80;58.80;14.80;96052.00;;;;4976889;28;20227;-90
2023/12/25 07:37:59;;;;;;;1.37;0.43;;;15.80;58.90;14.80;96057.00;;;;4976493;28;20255;-89
2023/12/25 07:40:26;;;;;;;0.30;0.30;;;15.70;58.10;14.80;96059.00;;;;4979510;28;20281;-89
2023/12/25 07:42:54;;;;;;;0.30;0.20;;;15.70;58.60;14.80;96059.00;;;;4980721;28;20204;-90
2023/12/25 07:45:21;;;;;;;0.40;0.40;;;15.70;58.90;14.80;96067.00;;;;4984126;28;20253;-88
2023/12/25 07:47:48;;;;;;;1.03;0.30;;;15.70;58.30;14.80;96075.00;;;;4984513;28;20203;-88
2023/12/25 07:50:15;;;;;;;0.50;0.30;;;15.70;58.30;14.80;96063.00;;;;4980401;28;20589;-90
2023/12/25 07:52:43;;;;;;;0.57;0.30;;;15.70;58.30;14.80;96071.00;;;;4973431;28;20258;-90
2023/12/25 07:55:12;;;;;;;0.53;0.40;;;15.70;58.30;14.80;96072.00;;;;4978379;28;20984;-89
2023/12/25 07:57:43;;;;;;;1.50;0.70;;;15.70;58.00;14.80;96084.00;;;;4991793;28;20343;-90
2023/12/25 08:00:13;;;;;;;1.13;0.50;;;15.80;58.20;14.80;96080.00;;;;4992932;28;20203;-85
2023/12/25 08:02:40;;;;;;;0.30;0.30;;;15.80;58.00;14.90;96073.00;;;;4980438;28;20278;-85
2023/12/25 08:05:07;;;;;;;0.20;0.20;;;15.80;58.10;14.90;96080.00;;;;4976184;28;20282;-85
2023/12/25 08:07:35;;;;;;;1.30;0.30;;;15.80;58.00;14.90;96078.00;;;;4983179;28;20211;-88
2023/12/25 08:10:02;;;;;;;0.50;0.40;;;15.80;57.90;14.90;96098.00;;;;4974579;28;20208;-84
2023/12/25 08:12:31;;;;;;;0.20;0.20;;;15.80;57.80;15.00;96091.00;;;;4978140;28;20194;-84
2023/12/25 08:14:58;;;;;;;0.20;0.20;;;15.90;57.70;15.00;96091.00;;;;4984809;28;20254;-85
2023/12/25 08:17:25;;;;;;;0.33;0.20;;;15.90;57.60;15.00;96078.00;;;;4985460;28;20215;-86
2023/12/25 08:19:52;;;;;;;0.20;0.20;;;15.90;57.40;15.00;96105.00;;;;4985305;28;20265;-88
2023/12/25 08:22:19;;;;;;;0.40;0.30;;;15.90;57.00;14.90;96089.00;;;;4981519;28;20200;-86
2023/12/25 08:24:49;;;;;;;0.20;0.20;;;15.90;56.80;14.90;96088.00;;;;4983337;28;20203;-88
2023/12/25 08:27:17;;;;;;;0.40;0.20;;;15.90;56.90;14.90;96088.00;;;;4979430;28;20294;-87
2023/12/25 08:29:45;;;;;;;0.57;0.40;;;15.90;56.70;14.90;96089.00;;;;4990243;28;20261;-90
2023/12/25 08:32:14;;;;;;;0.30;0.30;;;15.90;56.60;14.90;96096.00;;;;4978839;28;20203;-89
2023/12/25 08:34:42;;;;;;;0.30;0.30;;;15.90;56.50;14.90;96091.00;;;;4977664;28;20245;-88
2023/12/25 08:37:12;;;;;;;0.30;0.30;;;15.80;56.30;14.80;96090.00;;;;4984943;28;20726;-87
2023/12/25 08:39:39;;;;;;;0.47;0.20;;;15.80;56.40;14.80;96083.00;;;;4982829;28;20227;-86
2023/12/25 08:42:09;;;;;;;0.30;0.30;;;15.80;56.10;14.80;96098.00;;;;4972856;28;20207;-86
2023/12/25 08:44:52;;;;;;;0.30;0.30;;;15.70;56.20;14.70;96087.00;;;;4975493;28;20278;-85
2023/12/25 08:47:19;;;;;;;0.33;0.33;;;15.60;55.20;14.70;96108.00;;;;4983396;28;20205;-86
2023/12/25 08:49:46;;;;;;;0.20;0.20;;;15.70;56.00;14.70;96091.00;;;;4975574;28;20686;-86
2023/12/25 08:52:14;;;;;;;0.33;0.33;;;15.70;56.00;14.70;96087.00;;;;4982955;28;20548;-85
2023/12/25 08:54:41;;;;;;;0.70;0.33;;;15.70;56.10;14.60;96097.00;;;;4976523;28;20258;-87
2023/12/25 08:57:08;;;;;;;0.20;0.20;;;15.60;56.00;14.70;96099.00;;;;4985495;28;20230;-87
2023/12/25 08:59:36;;;;;;;0.17;0.17;;;15.60;55.90;14.70;96106.00;;;;4991844;28;20195;-88
2023/12/25 09:02:04;;;;;;;0.10;0.10;;;15.60;55.90;14.70;96110.00;;;;4985542;28;20191;-88
2023/12/25 09:04:32;;;;;;;0.90;0.20;;;15.70;55.60;14.70;96112.00;;;;4986227;28;20896;-88
2023/12/25 09:06:59;;;;;;;0.20;0.20;;;15.70;55.90;14.80;96117.00;;;;4982647;28;20607;-86
2023/12/25 09:09:26;;;;;;;0.27;0.20;;;15.70;55.90;14.90;96121.00;;;;4987987;28;20241;-87
2023/12/25 09:11:54;;;;;;;0.30;0.23;;;15.80;55.80;14.90;96118.00;;;;4976840;28;20195;-88
2023/12/25 09:14:21;;;;;;;3.03;0.30;;;15.80;55.70;15.00;96114.00;;;;4979112;28;20242;-86
2023/12/25 09:16:48;;;;;;;0.13;0.13;;;15.90;55.70;15.00;96112.00;;;;4974640;28;20231;-85
2023/12/25 09:19:17;;;;;;;0.20;0.20;;;15.90;55.70;15.10;96107.00;;;;4981962;28;20241;-86
2023/12/25 09:21:44;;;;;;;1.10;0.40;;;15.90;55.10;15.10;96109.00;;;;4979060;28;20277;-86
2023/12/25 09:24:11;;;;;;;0.43;0.40;;;16.00;55.20;15.20;96100.00;;;;4975686;28;20220;-85
2023/12/25 09:26:39;;;;;;;0.33;0.30;;;16.00;55.00;15.20;96121.00;;;;4974825;28;20219;-84
2023/12/25 09:29:11;;;;;;;0.40;0.40;;;16.10;54.80;15.20;96113.00;;;;4977378;28;20260;-85
2023/12/25 09:31:38;;;;;;;0.20;0.17;;;16.10;54.50;15.20;96110.00;;;;4978396;28;20209;-85
2023/12/25 09:34:08;;;;;;;0.30;0.20;;;16.10;54.70;15.20;96124.00;;;;4975126;28;20236;-84
2023/12/25 09:36:39;;;;;;;0.37;0.30;;;16.20;54.60;15.30;96120.00;;;;4980340;28;20662;-85
2023/12/25 09:39:06;;;;;;;0.20;0.10;;;16.20;53.90;15.30;96120.00;;;;4963869;28;20231;-83
2023/12/25 09:41:35;;;;;;;0.20;0.20;;;16.20;54.50;15.30;96114.00;;;;4974910;28;20195;-83
2023/12/25 09:44:03;;;;;;;0.50;0.50;;;16.30;54.10;15.40;96126.00;;;;4972635;28;20254;-85
2023/12/25 09:46:30;;;;;;;0.27;0.27;;;16.30;54.30;15.40;96140.00;;;;4976841;28;20218;-85
2023/12/25 09:49:15;;;;;;;0.30;0.30;;;16.30;54.00;15.40;96134.00;;;;4990925;28;20203;-85
2023/12/25 09:51:46;;;;;;;0.20;0.20;;;16.30;53.80;15.50;96130.00;;;;4986896;28;20254;-86
2023/12/25 09:54:13;;;;;;;0.73;0.20;;;16.40;53.60;15.50;96143.00;;;;4981486;28;20199;-85
2023/12/25 09:56:43;;;;;;;0.30;0.30;;;16.40;54.00;15.50;96135.00;;;;4987037;28;20227;-84
2023/12/25 09:59:15;;;;;;;0.30;0.30;;;16.40;53.60;15.60;96138.00;;;;4982033;28;20194;-83
2023/12/25 10:01:43;;;;;;;0.30;0.30;;;16.50;53.70;15.60;96142.00;;;;4976666;28;20334;-83
2023/12/25 10:04:11;;;;;;;0.47;0.47;;;16.50;53.20;15.60;96132.00;;;;4980117;28;20261;-82
2023/12/25 10:06:38;;;;;;;0.50;0.50;;;16.50;53.20;15.60;96143.00;;;;4977140;28;20254;-83
2023/12/25 10:09:06;;;;;;;0.47;0.40;;;16.50;52.90;15.60;96138.00;;;;4979985;28;20747;-83
2023/12/25 10:11:36;;;;;;;0.20;0.20;;;16.50;52.70;15.60;96133.00;;;;4975140;28;20199;-84
2023/12/25 10:14:04;;;;;;;0.47;0.47;;;16.50;52.40;15.60;96139.00;;;;4986420;28;20213;-83
2023/12/25 10:16:31;;;;;;;0.20;0.20;;;16.60;52.60;15.70;96141.00;;;;4980387;28;20679;-84
2023/12/25 10:19:05;;;;;;;1.47;0.30;;;16.60;52.80;15.70;96136.00;;;;4976627;28;20258;-85
2023/12/25 10:21:43;;;;;;;0.30;0.20;;;16.60;52.80;15.80;96133.00;;;;4986040;28;20267;-84
2023/12/25 10:24:16;;;;;;;0.10;0.10;;;16.60;52.10;15.80;96141.00;;;;4978031;28;20188;-85
2023/12/25 10:26:52;;;;;;;0.50;0.30;;;16.70;52.20;15.80;96130.00;;;;4980706;28;20600;-85
2023/12/25 10:29:20;;;;;;;0.20;0.20;;;16.70;52.60;15.90;96124.00;;;;4988275;28;20265;-85
2023/12/25 10:31:48;;;;;;;0.43;0.30;;;16.80;52.80;15.90;96122.00;;;;4977635;28;20643;-84
2023/12/25 10:34:21;;;;;;;0.30;0.27;;;16.80;52.70;15.90;96109.00;;;;4981379;28;20199;-85
2023/12/25 10:36:54;;;;;;;0.20;0.20;;;16.80;52.20;16.00;96113.00;;;;4984810;28;20264;-84
2023/12/25 10:39:33;;;;;;;0.27;0.20;;;16.90;52.60;16.00;96093.00;;;;4984288;28;20203;-84
2023/12/25 10:42:02;;;;;;;2.40;0.40;;;16.30;51.20;16.10;96116.00;;;;4979338;28;20210;-84
2023/12/25 10:44:35;;;;;;;0.20;0.20;;;16.90;52.10;16.10;96107.00;;;;4979715;28;20203;-85
2023/12/25 10:47:12;;;;;;;0.20;0.20;;;16.70;51.90;16.10;96115.00;;;;4990065;28;20206;-84
2023/12/25 10:49:44;;;;;;;0.43;0.33;;;17.00;51.50;16.10;96118.00;;;;4984724;28;20721;-84
2023/12/25 10:52:25;;;;;;;0.70;0.60;;;17.00;51.80;16.10;96115.00;;;;4983440;28;20195;-84
2023/12/25 10:54:54;;;;;;;0.30;0.30;;;17.00;51.90;16.10;96122.00;;;;4978792;28;20651;-84
2023/12/25 10:57:23;;;;;;;0.67;0.40;;;17.00;52.30;16.10;96135.00;;;;4983898;28;20232;-86
2023/12/25 10:59:51;;;;;;;0.67;0.20;;;17.00;51.90;16.10;96119.00;;;;4975839;28;20209;-85